sensor_id;sensor_type;location;lat;lon;timestamp;temperature;humidity
9497;DHT22;4786;51.270;4.456;2023-05-21T00:02:25;15.20;99.90
9497;DHT22;4786;51.270;4.456;2023-05-21T00:04:54;15.10;99.90
9497;DHT22;4786;51.270;4.456;2023-05-21T00:07:20;15.10;99.90
9497;DHT22;4786;51.270;4.456;2023-05-21T00:09:46;15.10;99.90
9497;DHT22;4786;51.270;4.456;2023-05-21T00:12:12;15.00;99.90
9497;DHT22;4786;51.270;4.456;2023-05-21T00:14:37;15.00;99.90
9497;DHT22;4786;51.270;4.456;2023-05-21T00:17:04;15.00;99.90
9497;DHT22;4786;51.270;4.456;2023-05-21T00:19:29;14.90;99.90
9497;DHT22;4786;51.270;4.456;2023-05-21T00:21:57;14.90;99.90
9497;DHT22;4786;51.270;4.456;2023-05-21T00:24:22;14.90;99.90
9497;DHT22;4786;51.270;4.456;2023-05-21T00:26:48;14.90;99.90
9497;DHT22;4786;51.270;4.456;2023-05-21T00:29:14;14.90;99.90
9497;DHT22;4786;51.270;4.456;2023-05-21T00:31:40;14.90;99.90
9497;DHT22;4786;51.270;4.456;2023-05-21T00:34:06;14.90;99.90
9497;DHT22;4786;51.270;4.456;2023-05-21T00:36:32;15.00;99.90
9497;DHT22;4786;51.270;4.456;2023-05-21T00:38:59;14.90;99.90
9497;DHT22;4786;51.270;4.456;2023-05-21T00:41:25;14.90;99.90
9497;DHT22;4786;51.270;4.456;2023-05-21T00:43:51;14.80;99.90
9497;DHT22;4786;51.270;4.456;2023-05-21T00:46:18;14.80;99.90
9497;DHT22;4786;51.270;4.456;2023-05-21T00:48:46;14.70;99.90
9497;DHT22;4786;51.270;4.456;2023-05-21T00:51:13;14.80;99.90
9497;DHT22;4786;51.270;4.456;2023-05-21T00:53:39;14.70;99.90
9497;DHT22;4786;51.270;4.456;2023-05-21T00:56:06;14.70;99.90
9497;DHT22;4786;51.270;4.456;2023-05-21T00:58:32;14.70;99.90
9497;DHT22;4786;51.270;4.456;2023-05-21T01:00:59;14.70;99.90
9497;DHT22;4786;51.270;4.456;2023-05-21T01:03:31;14.70;99.90
9497;DHT22;4786;51.270;4.456;2023-05-21T01:06:07;14.60;99.90
9497;DHT22;4786;51.270;4.456;2023-05-21T01:08:34;14.60;99.90
9497;DHT22;4786;51.270;4.456;2023-05-21T01:11:02;14.60;99.90
9497;DHT22;4786;51.270;4.456;2023-05-21T01:13:30;14.60;99.90
9497;DHT22;4786;51.270;4.456;2023-05-21T01:15:57;14.50;99.90
9497;DHT22;4786;51.270;4.456;2023-05-21T01:18:24;14.50;99.90
9497;DHT22;4786;51.270;4.456;2023-05-21T01:20:50;14.40;99.90
9497;DHT22;4786;51.270;4.456;2023-05-21T01:23:17;14.50;99.90
9497;DHT22;4786;51.270;4.456;2023-05-21T01:25:44;14.40;99.90
9497;DHT22;4786;51.270;4.456;2023-05-21T01:28:11;14.40;99.90
9497;DHT22;4786;51.270;4.456;2023-05-21T01:30:38;14.40;99.90
9497;DHT22;4786;51.270;4.456;2023-05-21T01:33:22;14.40;99.90
9497;DHT22;4786;51.270;4.456;2023-05-21T01:35:58;14.40;99.90
9497;DHT22;4786;51.270;4.456;2023-05-21T01:38:42;14.30;99.90
9497;DHT22;4786;51.270;4.456;2023-05-21T01:41:13;14.30;99.90
9497;DHT22;4786;51.270;4.456;2023-05-21T01:43:42;14.20;99.90
9497;DHT22;4786;51.270;4.456;2023-05-21T01:46:11;14.10;99.90
9497;DHT22;4786;51.270;4.456;2023-05-21T01:48:40;14.10;99.90
9497;DHT22;4786;51.270;4.456;2023-05-21T01:51:07;14.10;99.90
9497;DHT22;4786;51.270;4.456;2023-05-21T01:53:33;14.10;99.90
9497;DHT22;4786;51.270;4.456;2023-05-21T01:55:59;14.10;99.90
9497;DHT22;4786;51.270;4.456;2023-05-21T01:58:25;14.10;99.90
9497;DHT22;4786;51.270;4.456;2023-05-21T02:00:51;14.10;99.90
9497;DHT22;4786;51.270;4.456;2023-05-21T02:03:18;14.10;99.90
9497;DHT22;4786;51.270;4.456;2023-05-21T02:05:44;14.10;99.90
9497;DHT22;4786;51.270;4.456;2023-05-21T02:08:10;14.00;99.90
9497;DHT22;4786;51.270;4.456;2023-05-21T02:10:37;14.00;99.90
9497;DHT22;4786;51.270;4.456;2023-05-21T02:13:03;14.00;99.90
9497;DHT22;4786;51.270;4.456;2023-05-21T02:15:29;14.00;99.90
9497;DHT22;4786;51.270;4.456;2023-05-21T02:17:55;14.00;99.90
9497;DHT22;4786;51.270;4.456;2023-05-21T02:20:21;14.00;99.90
9497;DHT22;4786;51.270;4.456;2023-05-21T02:22:48;13.90;99.90
9497;DHT22;4786;51.270;4.456;2023-05-21T02:25:17;14.00;99.90
9497;DHT22;4786;51.270;4.456;2023-05-21T02:27:44;13.90;99.90
9497;DHT22;4786;51.270;4.456;2023-05-21T02:30:13;14.00;99.90
9497;DHT22;4786;51.270;4.456;2023-05-21T02:32:39;13.90;99.90
9497;DHT22;4786;51.270;4.456;2023-05-21T02:35:10;13.90;99.90
9497;DHT22;4786;51.270;4.456;2023-05-21T02:37:37;13.80;99.90
9497;DHT22;4786;51.270;4.456;2023-05-21T02:40:05;13.80;99.90
9497;DHT22;4786;51.270;4.456;2023-05-21T02:42:32;13.80;99.90
9497;DHT22;4786;51.270;4.456;2023-05-21T02:44:59;13.80;99.90
9497;DHT22;4786;51.270;4.456;2023-05-21T02:47:25;13.80;99.90
9497;DHT22;4786;51.270;4.456;2023-05-21T02:49:51;13.90;99.90
9497;DHT22;4786;51.270;4.456;2023-05-21T02:52:19;13.80;99.90
9497;DHT22;4786;51.270;4.456;2023-05-21T02:54:48;13.80;99.90
9497;DHT22;4786;51.270;4.456;2023-05-21T02:57:14;13.70;99.90
9497;DHT22;4786;51.270;4.456;2023-05-21T02:59:40;13.70;99.90
9497;DHT22;4786;51.270;4.456;2023-05-21T03:02:06;13.70;99.90
9497;DHT22;4786;51.270;4.456;2023-05-21T03:04:32;13.70;99.90
9497;DHT22;4786;51.270;4.456;2023-05-21T03:07:05;13.70;99.90
9497;DHT22;4786;51.270;4.456;2023-05-21T03:09:32;13.70;99.90
9497;DHT22;4786;51.270;4.456;2023-05-21T03:11:58;13.70;99.90
9497;DHT22;4786;51.270;4.456;2023-05-21T03:14:23;13.70;99.90
9497;DHT22;4786;51.270;4.456;2023-05-21T03:16:49;13.70;99.90
9497;DHT22;4786;51.270;4.456;2023-05-21T03:19:15;13.60;99.90
9497;DHT22;4786;51.270;4.456;2023-05-21T03:21:42;13.70;99.90
9497;DHT22;4786;51.270;4.456;2023-05-21T03:24:08;13.70;99.90
9497;DHT22;4786;51.270;4.456;2023-05-21T03:26:34;13.70;99.90
9497;DHT22;4786;51.270;4.456;2023-05-21T03:29:00;13.70;99.90
9497;DHT22;4786;51.270;4.456;2023-05-21T03:31:26;13.70;99.90
9497;DHT22;4786;51.270;4.456;2023-05-21T03:33:52;13.70;99.90
9497;DHT22;4786;51.270;4.456;2023-05-21T03:36:19;13.70;99.90
9497;DHT22;4786;51.270;4.456;2023-05-21T03:38:45;13.70;99.90
9497;DHT22;4786;51.270;4.456;2023-05-21T03:41:11;13.70;99.90
9497;DHT22;4786;51.270;4.456;2023-05-21T03:43:37;13.70;99.90
9497;DHT22;4786;51.270;4.456;2023-05-21T03:46:03;13.70;99.90
9497;DHT22;4786;51.270;4.456;2023-05-21T03:48:29;13.70;99.90
9497;DHT22;4786;51.270;4.456;2023-05-21T03:50:55;13.80;99.90
9497;DHT22;4786;51.270;4.456;2023-05-21T03:53:21;13.80;99.90
9497;DHT22;4786;51.270;4.456;2023-05-21T03:55:47;13.70;99.90
9497;DHT22;4786;51.270;4.456;2023-05-21T03:58:20;13.80;99.90
9497;DHT22;4786;51.270;4.456;2023-05-21T04:00:46;13.80;99.90
9497;DHT22;4786;51.270;4.456;2023-05-21T04:03:12;13.80;99.90
9497;DHT22;4786;51.270;4.456;2023-05-21T04:05:40;13.90;99.90
9497;DHT22;4786;51.270;4.456;2023-05-21T04:08:06;13.80;99.90
9497;DHT22;4786;51.270;4.456;2023-05-21T04:10:31;13.80;99.90
9497;DHT22;4786;51.270;4.456;2023-05-21T04:12:57;13.90;99.90
9497;DHT22;4786;51.270;4.456;2023-05-21T04:15:23;13.90;99.90
9497;DHT22;4786;51.270;4.456;2023-05-21T04:17:49;13.90;99.90
9497;DHT22;4786;51.270;4.456;2023-05-21T04:20:15;14.00;99.90
9497;DHT22;4786;51.270;4.456;2023-05-21T04:22:41;14.00;99.90
9497;DHT22;4786;51.270;4.456;2023-05-21T04:25:08;14.00;99.90
9497;DHT22;4786;51.270;4.456;2023-05-21T04:27:35;13.90;99.90
9497;DHT22;4786;51.270;4.456;2023-05-21T04:30:02;13.90;99.90
9497;DHT22;4786;51.270;4.456;2023-05-21T04:32:31;13.90;99.90
9497;DHT22;4786;51.270;4.456;2023-05-21T04:34:59;13.90;99.90
9497;DHT22;4786;51.270;4.456;2023-05-21T04:37:31;13.90;99.90
9497;DHT22;4786;51.270;4.456;2023-05-21T04:39:59;14.00;99.90
9497;DHT22;4786;51.270;4.456;2023-05-21T04:42:45;14.10;99.90
9497;DHT22;4786;51.270;4.456;2023-05-21T04:45:12;14.10;99.90
9497;DHT22;4786;51.270;4.456;2023-05-21T04:47:38;14.10;99.90
9497;DHT22;4786;51.270;4.456;2023-05-21T04:50:05;14.20;99.90
9497;DHT22;4786;51.270;4.456;2023-05-21T04:52:31;14.20;99.90
9497;DHT22;4786;51.270;4.456;2023-05-21T04:54:59;14.30;99.90
9497;DHT22;4786;51.270;4.456;2023-05-21T04:57:26;14.30;99.90
9497;DHT22;4786;51.270;4.456;2023-05-21T04:59:52;14.30;99.90
9497;DHT22;4786;51.270;4.456;2023-05-21T05:02:18;14.40;99.90
9497;DHT22;4786;51.270;4.456;2023-05-21T05:04:44;14.50;99.90
9497;DHT22;4786;51.270;4.456;2023-05-21T05:07:11;14.50;99.90
9497;DHT22;4786;51.270;4.456;2023-05-21T05:09:37;14.50;99.90
9497;DHT22;4786;51.270;4.456;2023-05-21T05:12:03;14.60;99.90
9497;DHT22;4786;51.270;4.456;2023-05-21T05:14:29;14.70;99.90
9497;DHT22;4786;51.270;4.456;2023-05-21T05:16:55;14.70;99.90
9497;DHT22;4786;51.270;4.456;2023-05-21T05:19:27;14.70;99.90
9497;DHT22;4786;51.270;4.456;2023-05-21T05:21:54;14.80;99.90
9497;DHT22;4786;51.270;4.456;2023-05-21T05:24:20;15.00;99.90
9497;DHT22;4786;51.270;4.456;2023-05-21T05:26:46;15.10;99.90
9497;DHT22;4786;51.270;4.456;2023-05-21T05:29:12;15.20;99.90
9497;DHT22;4786;51.270;4.456;2023-05-21T05:31:37;15.30;99.90
9497;DHT22;4786;51.270;4.456;2023-05-21T05:34:04;15.40;99.90
9497;DHT22;4786;51.270;4.456;2023-05-21T05:36:29;15.60;99.90
9497;DHT22;4786;51.270;4.456;2023-05-21T05:38:55;15.80;99.90
9497;DHT22;4786;51.270;4.456;2023-05-21T05:41:21;15.90;99.90
9497;DHT22;4786;51.270;4.456;2023-05-21T05:43:47;15.90;99.90
9497;DHT22;4786;51.270;4.456;2023-05-21T05:46:12;15.90;99.90
9497;DHT22;4786;51.270;4.456;2023-05-21T05:48:38;16.00;99.90
9497;DHT22;4786;51.270;4.456;2023-05-21T05:51:04;16.10;99.90
9497;DHT22;4786;51.270;4.456;2023-05-21T05:53:31;16.20;99.90
9497;DHT22;4786;51.270;4.456;2023-05-21T05:55:56;16.40;99.90
9497;DHT22;4786;51.270;4.456;2023-05-21T05:58:22;16.70;99.90
9497;DHT22;4786;51.270;4.456;2023-05-21T06:00:48;17.10;99.90
9497;DHT22;4786;51.270;4.456;2023-05-21T06:03:14;17.30;99.90
9497;DHT22;4786;51.270;4.456;2023-05-21T06:05:40;17.70;99.90
9497;DHT22;4786;51.270;4.456;2023-05-21T06:08:07;18.00;99.90
9497;DHT22;4786;51.270;4.456;2023-05-21T06:10:32;18.60;99.90
9497;DHT22;4786;51.270;4.456;2023-05-21T06:12:58;19.20;99.90
9497;DHT22;4786;51.270;4.456;2023-05-21T06:15:24;19.90;99.90
9497;DHT22;4786;51.270;4.456;2023-05-21T06:17:50;20.30;99.90
9497;DHT22;4786;51.270;4.456;2023-05-21T06:20:16;20.60;99.90
9497;DHT22;4786;51.270;4.456;2023-05-21T06:22:42;20.70;99.90
9497;DHT22;4786;51.270;4.456;2023-05-21T06:25:08;21.30;99.90
9497;DHT22;4786;51.270;4.456;2023-05-21T06:27:36;21.30;99.90
9497;DHT22;4786;51.270;4.456;2023-05-21T06:30:02;21.30;99.90
9497;DHT22;4786;51.270;4.456;2023-05-21T06:32:28;21.10;99.90
9497;DHT22;4786;51.270;4.456;2023-05-21T06:34:54;20.90;99.90
9497;DHT22;4786;51.270;4.456;2023-05-21T06:37:20;20.80;99.90
9497;DHT22;4786;51.270;4.456;2023-05-21T06:39:46;20.60;99.90
9497;DHT22;4786;51.270;4.456;2023-05-21T06:42:12;20.80;99.90
9497;DHT22;4786;51.270;4.456;2023-05-21T06:44:38;21.10;99.90
9497;DHT22;4786;51.270;4.456;2023-05-21T06:47:03;21.10;99.90
9497;DHT22;4786;51.270;4.456;2023-05-21T06:49:31;21.00;99.90
9497;DHT22;4786;51.270;4.456;2023-05-21T06:51:57;21.00;99.90
9497;DHT22;4786;51.270;4.456;2023-05-21T06:54:22;21.40;99.90
9497;DHT22;4786;51.270;4.456;2023-05-21T06:56:49;21.70;99.90
9497;DHT22;4786;51.270;4.456;2023-05-21T06:59:15;21.80;99.90
9497;DHT22;4786;51.270;4.456;2023-05-21T07:01:41;21.60;99.90
9497;DHT22;4786;51.270;4.456;2023-05-21T07:04:07;21.50;99.90
9497;DHT22;4786;51.270;4.456;2023-05-21T07:06:33;21.50;99.90
9497;DHT22;4786;51.270;4.456;2023-05-21T07:09:00;21.60;99.90
9497;DHT22;4786;51.270;4.456;2023-05-21T07:11:26;21.20;99.90
9497;DHT22;4786;51.270;4.456;2023-05-21T07:13:53;21.00;99.90
9497;DHT22;4786;51.270;4.456;2023-05-21T07:16:20;21.10;99.90
9497;DHT22;4786;51.270;4.456;2023-05-21T07:18:46;20.90;99.90
9497;DHT22;4786;51.270;4.456;2023-05-21T07:21:11;21.20;99.90
9497;DHT22;4786;51.270;4.456;2023-05-21T07:23:37;21.70;99.90
9497;DHT22;4786;51.270;4.456;2023-05-21T07:26:03;22.10;99.90
9497;DHT22;4786;51.270;4.456;2023-05-21T07:28:29;22.40;99.90
9497;DHT22;4786;51.270;4.456;2023-05-21T07:30:54;22.50;99.90
9497;DHT22;4786;51.270;4.456;2023-05-21T07:33:20;22.80;99.90
9497;DHT22;4786;51.270;4.456;2023-05-21T07:35:47;22.80;99.90
9497;DHT22;4786;51.270;4.456;2023-05-21T07:38:13;22.50;99.90
9497;DHT22;4786;51.270;4.456;2023-05-21T07:40:39;22.10;99.90
9497;DHT22;4786;51.270;4.456;2023-05-21T07:43:05;22.00;99.90
9497;DHT22;4786;51.270;4.456;2023-05-21T07:45:30;21.70;99.90
9497;DHT22;4786;51.270;4.456;2023-05-21T07:47:56;21.60;99.90
9497;DHT22;4786;51.270;4.456;2023-05-21T07:50:22;21.60;99.90
9497;DHT22;4786;51.270;4.456;2023-05-21T07:52:48;21.60;99.90
9497;DHT22;4786;51.270;4.456;2023-05-21T07:55:15;21.40;99.90
9497;DHT22;4786;51.270;4.456;2023-05-21T07:57:41;21.40;99.90
9497;DHT22;4786;51.270;4.456;2023-05-21T08:00:07;21.30;99.90
9497;DHT22;4786;51.270;4.456;2023-05-21T08:02:38;21.10;99.90
9497;DHT22;4786;51.270;4.456;2023-05-21T08:05:04;21.20;99.90
9497;DHT22;4786;51.270;4.456;2023-05-21T08:07:30;21.00;99.90
9497;DHT22;4786;51.270;4.456;2023-05-21T08:09:57;20.90;99.90
9497;DHT22;4786;51.270;4.456;2023-05-21T08:12:23;21.00;99.90
9497;DHT22;4786;51.270;4.456;2023-05-21T08:14:49;21.10;99.90
9497;DHT22;4786;51.270;4.456;2023-05-21T08:17:15;21.20;99.90
9497;DHT22;4786;51.270;4.456;2023-05-21T08:19:40;21.30;99.90
9497;DHT22;4786;51.270;4.456;2023-05-21T08:22:06;21.40;99.90
9497;DHT22;4786;51.270;4.456;2023-05-21T08:24:33;21.40;99.90
9497;DHT22;4786;51.270;4.456;2023-05-21T08:26:59;21.30;99.90
9497;DHT22;4786;51.270;4.456;2023-05-21T08:29:25;21.20;99.90
9497;DHT22;4786;51.270;4.456;2023-05-21T08:31:51;21.20;99.90
9497;DHT22;4786;51.270;4.456;2023-05-21T08:34:17;21.30;99.90
9497;DHT22;4786;51.270;4.456;2023-05-21T08:36:43;21.40;99.90
9497;DHT22;4786;51.270;4.456;2023-05-21T08:39:10;21.60;99.90
9497;DHT22;4786;51.270;4.456;2023-05-21T08:41:38;21.70;99.90
9497;DHT22;4786;51.270;4.456;2023-05-21T08:44:10;21.90;99.90
9497;DHT22;4786;51.270;4.456;2023-05-21T08:46:39;22.00;99.90
9497;DHT22;4786;51.270;4.456;2023-05-21T08:49:10;21.90;99.90
9497;DHT22;4786;51.270;4.456;2023-05-21T08:51:37;21.80;99.90
9497;DHT22;4786;51.270;4.456;2023-05-21T08:54:06;21.90;99.90
9497;DHT22;4786;51.270;4.456;2023-05-21T08:56:33;21.70;99.90
9497;DHT22;4786;51.270;4.456;2023-05-21T08:59:01;21.70;99.90
9497;DHT22;4786;51.270;4.456;2023-05-21T09:01:27;21.70;99.90
9497;DHT22;4786;51.270;4.456;2023-05-21T09:03:56;21.70;99.90
9497;DHT22;4786;51.270;4.456;2023-05-21T09:06:22;21.70;99.90
9497;DHT22;4786;51.270;4.456;2023-05-21T09:09:01;21.70;99.90
9497;DHT22;4786;51.270;4.456;2023-05-21T09:11:29;21.80;99.90
9497;DHT22;4786;51.270;4.456;2023-05-21T09:13:56;21.90;99.90
9497;DHT22;4786;51.270;4.456;2023-05-21T09:16:22;22.00;99.90
9497;DHT22;4786;51.270;4.456;2023-05-21T09:18:48;22.00;99.90
9497;DHT22;4786;51.270;4.456;2023-05-21T09:21:28;22.00;99.90
9497;DHT22;4786;51.270;4.456;2023-05-21T09:23:59;22.20;99.90
9497;DHT22;4786;51.270;4.456;2023-05-21T09:26:26;22.50;99.90
9497;DHT22;4786;51.270;4.456;2023-05-21T09:28:58;22.50;99.90
9497;DHT22;4786;51.270;4.456;2023-05-21T09:31:24;22.70;99.90
9497;DHT22;4786;51.270;4.456;2023-05-21T09:33:53;22.80;99.90
9497;DHT22;4786;51.270;4.456;2023-05-21T09:36:20;22.80;99.90
9497;DHT22;4786;51.270;4.456;2023-05-21T09:38:50;22.60;99.90
9497;DHT22;4786;51.270;4.456;2023-05-21T09:41:17;22.60;99.90
9497;DHT22;4786;51.270;4.456;2023-05-21T09:43:43;22.20;99.90
9497;DHT22;4786;51.270;4.456;2023-05-21T09:46:10;22.40;99.90
9497;DHT22;4786;51.270;4.456;2023-05-21T09:48:37;22.70;99.90
9497;DHT22;4786;51.270;4.456;2023-05-21T09:53:52;22.60;99.90
9497;DHT22;4786;51.270;4.456;2023-05-21T09:56:22;22.70;99.90
9497;DHT22;4786;51.270;4.456;2023-05-21T09:58:51;22.80;99.90
9497;DHT22;4786;51.270;4.456;2023-05-21T10:01:19;22.80;99.90
9497;DHT22;4786;51.270;4.456;2023-05-21T10:03:49;22.80;99.90
9497;DHT22;4786;51.270;4.456;2023-05-21T10:06:17;22.70;99.90
9497;DHT22;4786;51.270;4.456;2023-05-21T10:08:44;22.70;99.90
9497;DHT22;4786;51.270;4.456;2023-05-21T10:11:13;22.60;99.90
9497;DHT22;4786;51.270;4.456;2023-05-21T10:13:43;22.70;99.90
9497;DHT22;4786;51.270;4.456;2023-05-21T10:16:10;22.80;99.90
9497;DHT22;4786;51.270;4.456;2023-05-21T10:18:37;23.20;99.90
9497;DHT22;4786;51.270;4.456;2023-05-21T10:21:05;23.10;99.90
9497;DHT22;4786;51.270;4.456;2023-05-21T10:23:35;23.40;99.90
9497;DHT22;4786;51.270;4.456;2023-05-21T10:26:01;23.40;99.90
9497;DHT22;4786;51.270;4.456;2023-05-21T10:28:28;23.30;99.90
9497;DHT22;4786;51.270;4.456;2023-05-21T10:30:55;23.20;99.90
9497;DHT22;4786;51.270;4.456;2023-05-21T10:33:22;23.10;99.90
9497;DHT22;4786;51.270;4.456;2023-05-21T10:35:52;23.10;99.90
9497;DHT22;4786;51.270;4.456;2023-05-21T10:38:19;23.20;99.90
9497;DHT22;4786;51.270;4.456;2023-05-21T10:40:46;23.10;99.90
9497;DHT22;4786;51.270;4.456;2023-05-21T10:52:24;22.80;99.90
9497;DHT22;4786;51.270;4.456;2023-05-21T10:55:12;22.90;99.90
9497;DHT22;4786;51.270;4.456;2023-05-21T11:00:17;23.10;99.90
9497;DHT22;4786;51.270;4.456;2023-05-21T11:02:46;23.40;99.90
9497;DHT22;4786;51.270;4.456;2023-05-21T11:05:13;23.60;99.90
9497;DHT22;4786;51.270;4.456;2023-05-21T11:07:57;23.70;99.90
9497;DHT22;4786;51.270;4.456;2023-05-21T11:10:39;23.80;99.90
9497;DHT22;4786;51.270;4.456;2023-05-21T11:13:13;23.60;99.90
9497;DHT22;4786;51.270;4.456;2023-05-21T11:16:14;23.70;99.90
9497;DHT22;4786;51.270;4.456;2023-05-21T11:21:09;23.90;99.90
9497;DHT22;4786;51.270;4.456;2023-05-21T11:23:51;23.90;99.90
9497;DHT22;4786;51.270;4.456;2023-05-21T11:26:28;23.80;99.90
9497;DHT22;4786;51.270;4.456;2023-05-21T11:29:07;23.70;99.90
9497;DHT22;4786;51.270;4.456;2023-05-21T11:31:34;23.80;99.90
9497;DHT22;4786;51.270;4.456;2023-05-21T11:34:20;23.90;99.90
9497;DHT22;4786;51.270;4.456;2023-05-21T11:39:50;23.60;99.90
9497;DHT22;4786;51.270;4.456;2023-05-21T11:42:33;23.50;99.90
9497;DHT22;4786;51.270;4.456;2023-05-21T11:45:01;23.40;99.90
9497;DHT22;4786;51.270;4.456;2023-05-21T11:47:27;23.20;99.90
9497;DHT22;4786;51.270;4.456;2023-05-21T11:49:55;23.10;99.90
9497;DHT22;4786;51.270;4.456;2023-05-21T11:52:21;22.90;99.90
9497;DHT22;4786;51.270;4.456;2023-05-21T11:54:51;22.80;99.90
9497;DHT22;4786;51.270;4.456;2023-05-21T11:57:22;22.80;99.90
9497;DHT22;4786;51.270;4.456;2023-05-21T11:59:50;23.00;99.90
9497;DHT22;4786;51.270;4.456;2023-05-21T12:02:18;23.30;99.90
9497;DHT22;4786;51.270;4.456;2023-05-21T12:04:46;23.40;99.90
9497;DHT22;4786;51.270;4.456;2023-05-21T12:07:14;23.50;99.90
9497;DHT22;4786;51.270;4.456;2023-05-21T12:09:44;23.50;99.90
9497;DHT22;4786;51.270;4.456;2023-05-21T12:12:12;23.60;99.90
9497;DHT22;4786;51.270;4.456;2023-05-21T12:14:38;23.60;99.90
9497;DHT22;4786;51.270;4.456;2023-05-21T12:17:05;23.70;99.90
9497;DHT22;4786;51.270;4.456;2023-05-21T12:19:35;23.80;99.90
9497;DHT22;4786;51.270;4.456;2023-05-21T12:22:05;23.80;99.90
9497;DHT22;4786;51.270;4.456;2023-05-21T12:24:33;24.00;99.90
9497;DHT22;4786;51.270;4.456;2023-05-21T12:27:01;24.10;99.90
9497;DHT22;4786;51.270;4.456;2023-05-21T12:29:29;24.20;99.90
9497;DHT22;4786;51.270;4.456;2023-05-21T12:32:00;24.30;99.90
9497;DHT22;4786;51.270;4.456;2023-05-21T12:34:42;24.10;99.90
9497;DHT22;4786;51.270;4.456;2023-05-21T12:37:20;24.10;99.90
9497;DHT22;4786;51.270;4.456;2023-05-21T12:39:50;24.10;99.90
9497;DHT22;4786;51.270;4.456;2023-05-21T12:42:30;24.10;99.90
9497;DHT22;4786;51.270;4.456;2023-05-21T12:44:56;24.00;99.90
9497;DHT22;4786;51.270;4.456;2023-05-21T12:47:24;24.00;99.90
9497;DHT22;4786;51.270;4.456;2023-05-21T12:49:56;23.90;99.90
9497;DHT22;4786;51.270;4.456;2023-05-21T12:52:43;23.90;99.90
9497;DHT22;4786;51.270;4.456;2023-05-21T12:55:13;23.90;99.90
9497;DHT22;4786;51.270;4.456;2023-05-21T12:57:39;23.90;99.90
9497;DHT22;4786;51.270;4.456;2023-05-21T13:00:06;23.90;99.90
9497;DHT22;4786;51.270;4.456;2023-05-21T13:02:42;23.80;99.90
9497;DHT22;4786;51.270;4.456;2023-05-21T13:05:14;23.80;99.90
9497;DHT22;4786;51.270;4.456;2023-05-21T13:07:44;23.80;99.90
9497;DHT22;4786;51.270;4.456;2023-05-21T13:10:12;23.70;99.90
9497;DHT22;4786;51.270;4.456;2023-05-21T13:12:38;23.60;99.90
9497;DHT22;4786;51.270;4.456;2023-05-21T13:15:05;23.30;99.90
9497;DHT22;4786;51.270;4.456;2023-05-21T13:17:32;23.40;99.90
9497;DHT22;4786;51.270;4.456;2023-05-21T13:20:08;23.50;99.90
9497;DHT22;4786;51.270;4.456;2023-05-21T13:22:36;23.60;99.90
9497;DHT22;4786;51.270;4.456;2023-05-21T13:25:11;23.70;99.90
9497;DHT22;4786;51.270;4.456;2023-05-21T13:27:40;23.70;99.90
9497;DHT22;4786;51.270;4.456;2023-05-21T13:30:06;23.60;99.90
9497;DHT22;4786;51.270;4.456;2023-05-21T13:32:33;23.60;99.90
9497;DHT22;4786;51.270;4.456;2023-05-21T13:34:59;23.60;99.90
9497;DHT22;4786;51.270;4.456;2023-05-21T13:37:25;23.60;99.90
9497;DHT22;4786;51.270;4.456;2023-05-21T13:39:51;23.60;99.90
9497;DHT22;4786;51.270;4.456;2023-05-21T13:42:17;23.60;99.90
9497;DHT22;4786;51.270;4.456;2023-05-21T13:44:43;23.70;99.90
9497;DHT22;4786;51.270;4.456;2023-05-21T13:47:09;23.50;99.90
9497;DHT22;4786;51.270;4.456;2023-05-21T13:49:37;23.60;99.90
9497;DHT22;4786;51.270;4.456;2023-05-21T13:52:04;23.70;99.90
9497;DHT22;4786;51.270;4.456;2023-05-21T13:54:30;23.80;99.90
9497;DHT22;4786;51.270;4.456;2023-05-21T13:56:57;23.90;99.90
9497;DHT22;4786;51.270;4.456;2023-05-21T13:59:22;24.00;99.90
9497;DHT22;4786;51.270;4.456;2023-05-21T14:01:49;23.90;99.90
9497;DHT22;4786;51.270;4.456;2023-05-21T14:04:16;23.90;99.90
9497;DHT22;4786;51.270;4.456;2023-05-21T14:06:42;24.00;99.90
9497;DHT22;4786;51.270;4.456;2023-05-21T14:09:09;23.90;99.90
9497;DHT22;4786;51.270;4.456;2023-05-21T14:11:35;23.80;99.90
9497;DHT22;4786;51.270;4.456;2023-05-21T14:14:02;23.70;99.90
9497;DHT22;4786;51.270;4.456;2023-05-21T14:16:28;23.90;99.90
9497;DHT22;4786;51.270;4.456;2023-05-21T14:18:58;24.20;99.90
9497;DHT22;4786;51.270;4.456;2023-05-21T14:21:24;24.30;99.90
9497;DHT22;4786;51.270;4.456;2023-05-21T14:23:50;24.30;99.90
9497;DHT22;4786;51.270;4.456;2023-05-21T14:26:16;24.40;99.90
9497;DHT22;4786;51.270;4.456;2023-05-21T14:28:43;24.30;99.90
9497;DHT22;4786;51.270;4.456;2023-05-21T14:31:10;24.30;99.90
9497;DHT22;4786;51.270;4.456;2023-05-21T14:33:36;24.10;99.90
9497;DHT22;4786;51.270;4.456;2023-05-21T14:36:03;24.00;99.90
9497;DHT22;4786;51.270;4.456;2023-05-21T14:38:29;24.10;99.90
9497;DHT22;4786;51.270;4.456;2023-05-21T14:40:55;24.10;99.90
9497;DHT22;4786;51.270;4.456;2023-05-21T14:43:21;24.20;99.90
9497;DHT22;4786;51.270;4.456;2023-05-21T14:45:48;24.30;99.90
9497;DHT22;4786;51.270;4.456;2023-05-21T14:48:16;24.20;99.90
9497;DHT22;4786;51.270;4.456;2023-05-21T14:50:42;24.30;99.90
9497;DHT22;4786;51.270;4.456;2023-05-21T14:53:10;24.30;99.90
9497;DHT22;4786;51.270;4.456;2023-05-21T14:55:36;24.20;99.90
9497;DHT22;4786;51.270;4.456;2023-05-21T14:58:03;24.20;99.90
9497;DHT22;4786;51.270;4.456;2023-05-21T15:00:30;24.40;99.90
9497;DHT22;4786;51.270;4.456;2023-05-21T15:02:56;24.30;99.90
9497;DHT22;4786;51.270;4.456;2023-05-21T15:05:23;24.40;99.90
9497;DHT22;4786;51.270;4.456;2023-05-21T15:07:49;24.50;99.90
9497;DHT22;4786;51.270;4.456;2023-05-21T15:10:15;24.50;99.90
9497;DHT22;4786;51.270;4.456;2023-05-21T15:12:41;24.50;99.90
9497;DHT22;4786;51.270;4.456;2023-05-21T15:15:07;24.40;99.90
9497;DHT22;4786;51.270;4.456;2023-05-21T15:17:34;24.40;99.90
9497;DHT22;4786;51.270;4.456;2023-05-21T15:20:01;24.20;99.90
9497;DHT22;4786;51.270;4.456;2023-05-21T15:22:29;24.20;99.90
9497;DHT22;4786;51.270;4.456;2023-05-21T15:24:55;24.00;99.90
9497;DHT22;4786;51.270;4.456;2023-05-21T15:27:21;24.00;99.90
9497;DHT22;4786;51.270;4.456;2023-05-21T15:29:49;24.00;99.90
9497;DHT22;4786;51.270;4.456;2023-05-21T15:32:15;23.70;99.90
9497;DHT22;4786;51.270;4.456;2023-05-21T15:34:42;23.60;99.90
9497;DHT22;4786;51.270;4.456;2023-05-21T15:37:07;23.50;99.90
9497;DHT22;4786;51.270;4.456;2023-05-21T15:39:34;23.50;99.90
9497;DHT22;4786;51.270;4.456;2023-05-21T15:42:00;23.70;99.90
9497;DHT22;4786;51.270;4.456;2023-05-21T15:44:26;23.80;99.90
9497;DHT22;4786;51.270;4.456;2023-05-21T15:46:51;23.80;99.90
9497;DHT22;4786;51.270;4.456;2023-05-21T15:49:19;23.80;99.90
9497;DHT22;4786;51.270;4.456;2023-05-21T15:51:48;23.90;99.90
9497;DHT22;4786;51.270;4.456;2023-05-21T15:54:13;23.90;99.90
9497;DHT22;4786;51.270;4.456;2023-05-21T15:56:42;23.90;99.90
9497;DHT22;4786;51.270;4.456;2023-05-21T15:59:08;23.90;99.90
9497;DHT22;4786;51.270;4.456;2023-05-21T16:01:33;23.90;99.90
9497;DHT22;4786;51.270;4.456;2023-05-21T16:04:00;23.90;99.90
9497;DHT22;4786;51.270;4.456;2023-05-21T16:06:27;23.90;99.90
9497;DHT22;4786;51.270;4.456;2023-05-21T16:08:52;23.90;99.90
9497;DHT22;4786;51.270;4.456;2023-05-21T16:11:18;23.90;99.90
9497;DHT22;4786;51.270;4.456;2023-05-21T16:13:44;23.90;99.90
9497;DHT22;4786;51.270;4.456;2023-05-21T16:16:10;23.70;99.90
9497;DHT22;4786;51.270;4.456;2023-05-21T16:18:36;23.70;99.90
9497;DHT22;4786;51.270;4.456;2023-05-21T16:21:02;23.70;99.90
9497;DHT22;4786;51.270;4.456;2023-05-21T16:23:32;23.70;99.90
9497;DHT22;4786;51.270;4.456;2023-05-21T16:25:58;23.80;99.90